Time;durP1;ratioP1;P1;durP2;ratioP2;P2;SDS_P1;SDS_P2;PMS_P1;PMS_P2;Temp;Humidity;BMP_temperature;BMP_pressure;BME280_temperature;BME280_humidity;BME280_pressure;Samples;Min_cycle;Max_cycle;Signal;HPM_P1;HPM_P2
2021/05/13 00:00:48;;;;;;;6.80;2.45;;;13.30;99.90;;;;;;4992790;28;20197;-81
2021/05/13 00:03:14;;;;;;;2.10;1.90;;;13.40;99.90;;;;;;4992396;28;20204;-81
2021/05/13 00:05:40;;;;;;;5.90;2.03;;;13.20;99.90;;;;;;4992540;28;20215;-78
2021/05/13 00:08:07;;;;;;;2.50;2.10;;;13.20;99.90;;;;;;4993214;28;20193;-81
2021/05/13 00:10:33;;;;;;;2.08;1.88;;;13.40;99.90;;;;;;4997004;28;20561;-79
2021/05/13 00:13:00;;;;;;;1.95;1.85;;;13.30;99.90;;;;;;4996848;28;20216;-81
2021/05/13 00:15:29;;;;;;;7.85;3.45;;;13.20;99.90;;;;;;4996743;28;20169;-81
2021/05/13 00:17:56;;;;;;;4.82;2.38;;;13.10;99.90;;;;;;4997576;28;20213;-80
2021/05/13 00:20:27;;;;;;;3.92;2.20;;;13.10;99.90;;;;;;4997538;28;20292;-81
2021/05/13 00:22:53;;;;;;;6.50;2.20;;;12.90;99.90;;;;;;4996660;28;20162;-81
2021/05/13 00:25:19;;;;;;;3.45;2.33;;;12.90;99.90;;;;;;4996556;28;20243;-82
2021/05/13 00:27:45;;;;;;;6.30;2.00;;;12.90;99.90;;;;;;4996389;28;20187;-82
2021/05/13 00:30:11;;;;;;;2.55;2.35;;;12.80;99.90;;;;;;4996539;28;20268;-83
2021/05/13 00:32:37;;;;;;;3.95;2.30;;;13.00;99.90;;;;;;4996173;28;20172;-81
2021/05/13 00:35:08;;;;;;;2.92;2.72;;;12.90;99.90;;;;;;4996182;28;20165;-81
2021/05/13 00:37:34;;;;;;;2.72;2.53;;;13.00;99.90;;;;;;4996806;28;20276;-80
2021/05/13 00:40:00;;;;;;;5.97;2.17;;;13.00;99.90;;;;;;4996563;28;20291;-79
2021/05/13 00:42:26;;;;;;;3.40;2.28;;;12.90;99.90;;;;;;4997577;28;20172;-82
2021/05/13 00:44:55;;;;;;;5.78;2.15;;;12.90;99.90;;;;;;4996486;28;20208;-81
2021/05/13 00:47:23;;;;;;;3.65;2.50;;;13.10;99.90;;;;;;4996265;28;20189;-81
2021/05/13 00:49:49;;;;;;;3.00;2.53;;;13.10;99.90;;;;;;4996782;28;20169;-81
2021/05/13 00:52:18;;;;;;;5.55;2.65;;;13.20;99.90;;;;;;5008134;28;20193;-81
2021/05/13 00:54:45;;;;;;;6.28;2.92;;;13.20;99.90;;;;;;5009947;28;20168;-81
2021/05/13 00:57:13;;;;;;;3.67;3.25;;;13.20;99.90;;;;;;5009465;28;20235;-81
2021/05/13 00:59:41;;;;;;;2.60;2.40;;;13.20;99.90;;;;;;5004474;28;20209;-80
2021/05/13 01:02:07;;;;;;;4.82;2.60;;;13.20;99.90;;;;;;4995652;28;20525;-79
2021/05/13 01:04:32;;;;;;;7.82;3.40;;;13.20;99.90;;;;;;4995453;28;20165;-79
2021/05/13 01:06:59;;;;;;;3.47;2.95;;;13.30;99.90;;;;;;4995621;28;20186;-80
2021/05/13 01:09:27;;;;;;;5.05;2.97;;;13.30;99.90;;;;;;4995697;28;20228;-80
2021/05/13 01:12:05;;;;;;;5.32;3.30;;;13.20;99.90;;;;;;4995528;28;20181;-80
2021/05/13 01:19:33;;;;;;;5.90;2.67;;;13.50;99.90;;;;;;4995399;28;20251;-81
2021/05/13 01:22:00;;;;;;;5.07;3.85;;;13.40;99.90;;;;;;4977283;28;20180;-79
2021/05/13 01:24:26;;;;;;;6.63;3.33;;;13.30;99.90;;;;;;4995200;28;20201;-79
2021/05/13 01:26:52;;;;;;;14.77;4.07;;;13.30;99.90;;;;;;4995022;28;20185;-79
2021/05/13 01:29:20;;;;;;;9.60;3.47;;;13.20;99.90;;;;;;4995173;28;20184;-77
2021/05/13 01:31:47;;;;;;;8.55;3.83;;;13.30;99.90;;;;;;4995752;28;20208;-79
2021/05/13 01:34:12;;;;;;;4.13;3.58;;;13.20;99.90;;;;;;4995266;28;20165;-77
2021/05/13 01:36:39;;;;;;;3.90;3.45;;;13.10;99.90;;;;;;4994820;28;20192;-80
2021/05/13 01:39:07;;;;;;;6.53;4.32;;;13.20;99.90;;;;;;4994989;28;20201;-77
2021/05/13 01:41:34;;;;;;;5.03;4.28;;;13.40;99.90;;;;;;4977468;28;20173;-81
2021/05/13 01:43:59;;;;;;;5.97;4.60;;;13.40;99.90;;;;;;4995702;28;20161;-77
2021/05/13 01:46:25;;;;;;;5.00;4.30;;;13.40;99.90;;;;;;4977767;28;20763;-78
2021/05/13 01:48:51;;;;;;;4.70;4.30;;;13.40;99.90;;;;;;4994763;28;20271;-79
2021/05/13 01:51:16;;;;;;;4.53;4.10;;;13.50;99.90;;;;;;4994928;28;20534;-80
2021/05/13 01:53:43;;;;;;;6.78;4.53;;;13.80;99.90;;;;;;4994535;28;20514;-81
2021/05/13 01:56:10;;;;;;;5.28;4.65;;;13.70;99.90;;;;;;4977257;28;20618;-78
2021/05/13 01:58:36;;;;;;;8.65;4.88;;;13.70;99.90;;;;;;4977038;28;20543;-79
2021/05/13 02:01:03;;;;;;;4.97;4.38;;;13.60;99.90;;;;;;4994383;28;20197;-79
2021/05/13 02:03:28;;;;;;;4.95;3.92;;;13.70;99.90;;;;;;4995242;28;20208;-77
2021/05/13 02:05:54;;;;;;;8.38;4.57;;;13.90;99.90;;;;;;4995169;28;20168;-77
2021/05/13 02:08:20;;;;;;;9.38;4.72;;;13.90;99.90;;;;;;4994925;28;20197;-77
2021/05/13 02:10:47;;;;;;;6.82;5.10;;;13.70;99.90;;;;;;4994855;28;20180;-78
2021/05/13 02:13:13;;;;;;;9.10;4.85;;;13.60;99.90;;;;;;4994129;28;20171;-78
2021/05/13 02:15:38;;;;;;;9.82;4.57;;;13.70;99.90;;;;;;4992899;28;20256;-79
2021/05/13 02:18:04;;;;;;;7.68;4.97;;;13.60;99.90;;;;;;4994083;28;20236;-78
2021/05/13 02:20:30;;;;;;;6.85;4.45;;;13.70;99.90;;;;;;4993828;28;20205;-79
2021/05/13 02:22:57;;;;;;;12.85;6.00;;;13.50;99.90;;;;;;4994134;28;20169;-79
2021/05/13 02:25:26;;;;;;;5.82;5.22;;;13.50;99.90;;;;;;4993736;28;20200;-79
2021/05/13 02:27:51;;;;;;;7.05;5.47;;;13.50;99.90;;;;;;4993842;28;20181;-78
2021/05/13 02:30:17;;;;;;;5.28;4.78;;;13.50;99.90;;;;;;4993929;28;20261;-79
2021/05/13 02:32:42;;;;;;;9.20;4.95;;;13.60;99.90;;;;;;4992841;28;20628;-79
2021/05/13 02:35:10;;;;;;;6.88;4.90;;;13.60;99.90;;;;;;4993842;28;20521;-80
2021/05/13 02:37:35;;;;;;;6.57;5.05;;;13.40;99.90;;;;;;4976241;28;20235;-80
2021/05/13 02:40:01;;;;;;;7.07;5.43;;;13.30;99.90;;;;;;4993613;28;20233;-80
2021/05/13 02:42:27;;;;;;;8.18;5.18;;;13.20;99.90;;;;;;4993682;28;20180;-80
2021/05/13 02:44:52;;;;;;;6.18;5.57;;;13.20;99.90;;;;;;4993276;28;20162;-79
2021/05/13 02:47:18;;;;;;;8.63;6.00;;;13.00;99.90;;;;;;4993420;28;20681;-79
2021/05/13 02:49:43;;;;;;;5.88;5.38;;;13.00;99.90;;;;;;4993832;28;20165;-80
2021/05/13 02:52:09;;;;;;;5.63;5.13;;;12.90;99.90;;;;;;4993809;28;20256;-81
2021/05/13 02:54:34;;;;;;;8.40;4.93;;;12.70;99.90;;;;;;4993451;28;20165;-81
2021/05/13 02:57:00;;;;;;;12.20;6.82;;;12.70;99.90;;;;;;4993366;28;20269;-79
2021/05/13 02:59:46;;;;;;;7.82;5.82;;;12.70;99.90;;;;;;4975959;28;20212;-80
2021/05/13 03:02:13;;;;;;;6.43;5.82;;;12.80;99.90;;;;;;4993346;28;20157;-80
2021/05/13 03:04:39;;;;;;;14.18;6.93;;;12.70;99.90;;;;;;4993197;28;20640;-77
2021/05/13 03:07:05;;;;;;;9.43;6.07;;;12.70;99.90;;;;;;4993069;28;20272;-80
2021/05/13 03:09:31;;;;;;;8.52;5.90;;;12.70;99.90;;;;;;4993079;28;20247;-81
2021/05/13 03:11:56;;;;;;;9.05;5.30;;;12.40;99.90;;;;;;4993239;28;20165;-81
2021/05/13 03:14:22;;;;;;;10.38;5.88;;;12.20;99.90;;;;;;4993303;28;20235;-79
2021/05/13 03:16:48;;;;;;;13.02;6.32;;;12.40;99.90;;;;;;4993081;28;20239;-81
2021/05/13 03:19:20;;;;;;;6.00;5.40;;;12.40;99.90;;;;;;4993230;28;20239;-81
2021/05/13 03:21:47;;;;;;;15.40;6.32;;;12.30;99.90;;;;;;4991915;28;20544;-78
2021/05/13 03:29:09;;;;;;;8.73;6.50;;;12.30;99.90;;;;;;4992746;28;20184;-78
2021/05/13 03:31:35;;;;;;;8.13;6.88;;;12.30;99.90;;;;;;4992907;28;20169;-78
2021/05/13 03:34:01;;;;;;;9.15;5.97;;;12.30;99.90;;;;;;4993023;28;20173;-78
2021/05/13 03:36:30;;;;;;;7.72;6.80;;;12.20;99.90;;;;;;4993216;28;20177;-79
2021/05/13 03:38:56;;;;;;;11.10;6.63;;;12.20;99.90;;;;;;4992883;28;20197;-79
2021/05/13 03:41:21;;;;;;;7.63;6.93;;;12.20;99.90;;;;;;4993057;28;20178;-79
2021/05/13 03:43:47;;;;;;;9.30;6.30;;;12.00;99.90;;;;;;4995501;28;20226;-79
2021/05/13 03:46:13;;;;;;;9.18;6.35;;;12.10;99.90;;;;;;4999374;28;20633;-80
2021/05/13 03:48:38;;;;;;;7.45;6.00;;;12.00;99.90;;;;;;4981844;28;20258;-79
2021/05/13 03:51:04;;;;;;;11.10;7.20;;;12.00;99.90;;;;;;4981942;28;20180;-79
2021/05/13 03:53:30;;;;;;;10.07;7.00;;;11.90;99.90;;;;;;4981616;28;20168;-79
2021/05/13 03:55:56;;;;;;;7.30;6.60;;;11.80;99.90;;;;;;4999474;28;20172;-79
2021/05/13 03:58:25;;;;;;;10.88;7.07;;;11.90;99.90;;;;;;4998940;28;20197;-80
2021/05/13 04:03:20;;;;;;;9.95;6.90;;;11.90;99.90;;;;;;4999102;28;20176;-79
2021/05/13 04:05:46;;;;;;;7.38;6.60;;;12.00;99.90;;;;;;4981552;28;20625;-79
2021/05/13 04:08:13;;;;;;;8.68;7.55;;;12.00;99.90;;;;;;4998687;28;20181;-79
2021/05/13 04:10:40;;;;;;;12.23;7.03;;;12.10;99.90;;;;;;4981738;28;20169;-80
2021/05/13 04:13:09;;;;;;;9.20;6.97;;;12.20;99.90;;;;;;4999141;28;20621;-79
2021/05/13 04:15:35;;;;;;;13.23;8.40;;;12.30;99.90;;;;;;4999193;28;20169;-79
2021/05/13 04:18:01;;;;;;;8.82;7.63;;;12.30;99.90;;;;;;4998896;28;20283;-79
2021/05/13 04:20:27;;;;;;;9.07;7.35;;;12.50;99.90;;;;;;4998989;28;20259;-78
2021/05/13 04:22:52;;;;;;;7.80;6.47;;;12.40;99.90;;;;;;4981560;28;20165;-80
2021/05/13 04:25:18;;;;;;;12.38;7.82;;;12.20;99.90;;;;;;4999253;28;20581;-79
2021/05/13 04:27:44;;;;;;;11.80;7.95;;;12.10;99.90;;;;;;4998856;28;20275;-80
2021/05/13 04:30:10;;;;;;;11.27;7.55;;;12.20;99.90;;;;;;4999077;28;20172;-79
2021/05/13 04:32:36;;;;;;;8.75;8.00;;;12.10;99.90;;;;;;4998998;28;20180;-79
2021/05/13 04:35:01;;;;;;;9.55;7.32;;;12.10;99.90;;;;;;4999196;28;20172;-80
2021/05/13 04:37:27;;;;;;;11.95;7.18;;;12.20;99.90;;;;;;4999113;28;20188;-79
2021/05/13 04:39:53;;;;;;;12.82;6.80;;;12.20;99.90;;;;;;4999013;28;20612;-80
2021/05/13 04:42:18;;;;;;;9.63;7.70;;;12.50;99.90;;;;;;4998709;28;20696;-80
2021/05/13 04:44:44;;;;;;;8.85;7.30;;;12.60;99.90;;;;;;4998682;28;20169;-79
2021/05/13 04:47:27;;;;;;;7.63;6.95;;;12.60;99.90;;;;;;4998688;28;20174;-79
2021/05/13 04:49:54;;;;;;;9.07;7.38;;;12.90;99.90;;;;;;4998909;28;20260;-80
2021/05/13 04:52:22;;;;;;;8.55;7.68;;;13.10;99.90;;;;;;4998982;28;20182;-79
2021/05/13 04:54:54;;;;;;;10.13;7.18;;;13.10;99.90;;;;;;4998467;28;20196;-80
2021/05/13 04:57:20;;;;;;;9.07;7.32;;;13.10;99.90;;;;;;4995971;28;20549;-79
2021/05/13 04:59:46;;;;;;;12.80;7.07;;;13.00;99.90;;;;;;4996178;28;20212;-79
2021/05/13 05:02:12;;;;;;;8.27;6.60;;;13.10;99.90;;;;;;4995758;28;20169;-80
2021/05/13 05:04:38;;;;;;;7.47;6.00;;;13.30;99.90;;;;;;4995658;28;20184;-79
2021/05/13 05:07:04;;;;;;;8.60;6.97;;;13.40;99.90;;;;;;4995536;28;20193;-79
2021/05/13 05:09:29;;;;;;;17.80;7.65;;;13.50;99.90;;;;;;4995679;28;20181;-79
2021/05/13 05:11:55;;;;;;;7.07;6.07;;;13.70;99.90;;;;;;4994310;28;20216;-80
2021/05/13 05:14:21;;;;;;;7.88;6.45;;;13.70;99.90;;;;;;4995288;28;20173;-79
2021/05/13 05:16:46;;;;;;;7.65;6.18;;;13.90;99.90;;;;;;4995484;28;20176;-80
2021/05/13 05:19:12;;;;;;;13.40;5.85;;;14.00;99.90;;;;;;4995083;28;20665;-80
2021/05/13 05:21:37;;;;;;;7.28;6.07;;;13.80;99.90;;;;;;4995165;28;20243;-79
2021/05/13 05:24:04;;;;;;;7.13;5.88;;;13.80;99.90;;;;;;4995273;28;20261;-80
2021/05/13 05:26:29;;;;;;;11.40;6.63;;;14.00;99.90;;;;;;4995359;28;20625;-79
2021/05/13 05:28:55;;;;;;;13.02;6.13;;;14.10;99.90;;;;;;4994957;28;20168;-79
2021/05/13 05:31:21;;;;;;;9.73;6.35;;;14.00;99.90;;;;;;4995353;28;21009;-80
2021/05/13 05:33:46;;;;;;;10.23;5.80;;;14.00;99.90;;;;;;4995158;28;20192;-79
2021/05/13 05:36:12;;;;;;;8.57;6.10;;;14.10;99.90;;;;;;4995085;28;20209;-80
2021/05/13 05:38:37;;;;;;;7.90;5.80;;;14.20;99.90;;;;;;4994516;28;20185;-79
2021/05/13 05:41:03;;;;;;;8.07;5.43;;;14.50;99.90;;;;;;4994861;28;20173;-80
2021/05/13 05:43:28;;;;;;;8.35;6.10;;;14.60;99.90;;;;;;4977070;28;20227;-79
2021/05/13 05:45:54;;;;;;;10.50;5.65;;;14.50;99.90;;;;;;4994734;28;20176;-80
2021/05/13 05:48:20;;;;;;;10.93;5.97;;;14.60;99.90;;;;;;4994920;28;20216;-80
2021/05/13 05:50:45;;;;;;;14.73;6.07;;;14.60;99.90;;;;;;4994907;28;20176;-80
2021/05/13 05:53:11;;;;;;;8.98;5.72;;;14.70;99.90;;;;;;4994541;28;20173;-80
2021/05/13 05:55:41;;;;;;;10.80;5.35;;;14.80;99.90;;;;;;4994694;28;20166;-80
2021/05/13 05:58:07;;;;;;;5.68;4.85;;;14.90;99.90;;;;;;4994422;28;20315;-80
2021/05/13 06:00:32;;;;;;;6.18;5.05;;;15.00;99.90;;;;;;4994643;28;20617;-80
2021/05/13 06:02:58;;;;;;;6.45;4.40;;;15.00;99.90;;;;;;4994683;28;20166;-80
2021/05/13 06:05:24;;;;;;;8.23;4.90;;;15.20;99.90;;;;;;4994804;28;20533;-79
2021/05/13 06:07:50;;;;;;;7.38;4.38;;;15.40;99.90;;;;;;4993964;28;20220;-81
2021/05/13 06:10:16;;;;;;;5.40;4.90;;;15.50;99.90;;;;;;4994420;28;20176;-80
2021/05/13 06:12:43;;;;;;;8.02;4.70;;;15.40;99.90;;;;;;4994122;28;20173;-81
2021/05/13 06:15:14;;;;;;;9.23;4.70;;;15.60;99.90;;;;;;4994191;28;20240;-81
2021/05/13 06:17:40;;;;;;;8.02;4.63;;;15.50;99.90;;;;;;4994168;28;20239;-81
2021/05/13 06:20:08;;;;;;;7.40;4.95;;;15.40;99.90;;;;;;4993583;28;20572;-79
2021/05/13 06:22:34;;;;;;;8.23;4.38;;;15.40;99.90;;;;;;4993745;28;20173;-80
2021/05/13 06:25:00;;;;;;;8.05;5.32;;;15.50;99.90;;;;;;4994070;28;20173;-80
2021/05/13 06:27:26;;;;;;;5.70;4.55;;;15.50;99.90;;;;;;4976131;28;20276;-81
2021/05/13 06:29:52;;;;;;;6.53;4.30;;;15.50;99.90;;;;;;4993713;28;20256;-78
2021/05/13 06:32:18;;;;;;;8.20;4.25;;;15.40;99.90;;;;;;4993371;28;20197;-81
2021/05/13 06:34:44;;;;;;;4.55;3.67;;;15.50;99.90;;;;;;4993784;28;20176;-79
2021/05/13 06:37:11;;;;;;;5.53;3.88;;;15.40;99.90;;;;;;4993703;28;20182;-80
2021/05/13 06:39:36;;;;;;;7.32;4.53;;;15.40;99.90;;;;;;4993900;28;20197;-79
2021/05/13 06:42:04;;;;;;;4.60;4.13;;;15.60;99.90;;;;;;4993619;28;20173;-79
2021/05/13 06:44:29;;;;;;;6.15;4.07;;;15.80;99.90;;;;;;4975016;28;20172;-78
2021/05/13 06:46:55;;;;;;;5.90;3.72;;;16.10;99.90;;;;;;4994016;28;20193;-80
2021/05/13 06:49:20;;;;;;;8.35;4.22;;;16.20;99.90;;;;;;4993701;28;20169;-80
2021/05/13 06:51:46;;;;;;;5.80;3.97;;;16.30;99.90;;;;;;4993615;28;20248;-79
2021/05/13 06:54:12;;;;;;;4.85;3.67;;;16.20;99.90;;;;;;4992093;28;20204;-78
2021/05/13 06:56:38;;;;;;;6.82;4.13;;;16.30;99.90;;;;;;4993172;28;20622;-79
2021/05/13 06:59:04;;;;;;;6.10;3.30;;;16.50;99.90;;;;;;4993514;28;20204;-79
2021/05/13 07:01:30;;;;;;;5.93;3.00;;;16.80;99.90;;;;;;4994778;28;20161;-81
2021/05/13 07:03:57;;;;;;;3.67;3.38;;;17.00;99.90;;;;;;4998006;28;20172;-81
2021/05/13 07:06:24;;;;;;;4.50;3.15;;;17.00;99.90;;;;;;4995822;28;20173;-79
2021/05/13 07:08:49;;;;;;;4.10;2.83;;;16.90;99.90;;;;;;4993375;28;20192;-79
2021/05/13 07:11:15;;;;;;;10.60;2.72;;;17.00;99.90;;;;;;4990277;28;20180;-80
2021/05/13 07:13:41;;;;;;;7.13;2.75;;;17.00;99.90;;;;;;4979605;28;20729;-79
2021/05/13 07:16:07;;;;;;;11.30;2.75;;;17.10;99.90;;;;;;4973702;28;20256;-81
2021/05/13 07:18:33;;;;;;;6.53;3.00;;;17.10;99.90;;;;;;4974501;28;20296;-84
2021/05/13 07:20:58;;;;;;;5.90;2.20;;;17.10;99.90;;;;;;4992977;28;20197;-80
2021/05/13 07:23:24;;;;;;;5.32;2.50;;;17.30;99.90;;;;;;4992514;28;20176;-79
2021/05/13 07:25:50;;;;;;;3.47;2.08;;;17.40;99.90;;;;;;4985122;28;20176;-79
2021/05/13 07:28:15;;;;;;;13.35;2.20;;;17.90;99.90;;;;;;4986225;28;20189;-79
2021/05/13 07:30:42;;;;;;;3.08;2.22;;;17.90;99.90;;;;;;4993033;28;20652;-79
2021/05/13 07:33:08;;;;;;;7.63;1.90;;;17.90;99.90;;;;;;4992843;28;20165;-79
2021/05/13 07:35:34;;;;;;;9.13;2.22;;;18.10;99.90;;;;;;4992693;28;20621;-79
2021/05/13 07:37:59;;;;;;;11.70;2.22;;;18.20;99.90;;;;;;4992231;28;20189;-79
2021/05/13 07:40:27;;;;;;;2.85;1.50;;;18.30;99.90;;;;;;4992443;28;20212;-79
2021/05/13 07:42:56;;;;;;;6.28;1.80;;;18.30;99.90;;;;;;4993295;28;20169;-79
2021/05/13 07:45:22;;;;;;;3.00;2.00;;;18.40;99.90;;;;;;4993285;28;20517;-80
2021/05/13 07:47:48;;;;;;;2.72;1.83;;;18.50;99.90;;;;;;4992724;28;20193;-80
2021/05/13 07:50:18;;;;;;;7.00;1.58;;;18.40;99.90;;;;;;4992734;28;20613;-80
2021/05/13 07:52:45;;;;;;;1.92;1.50;;;18.70;99.90;;;;;;4992504;28;20167;-79
2021/05/13 07:55:12;;;;;;;4.93;1.80;;;19.00;99.90;;;;;;4992294;28;20161;-79
2021/05/13 07:57:37;;;;;;;3.42;1.30;;;19.40;99.90;;;;;;4978417;28;20569;-77
2021/05/13 08:00:05;;;;;;;3.85;1.80;;;19.40;99.90;;;;;;4973121;28;20205;-81
2021/05/13 08:02:30;;;;;;;2.55;1.30;;;19.60;99.90;;;;;;4973067;28;20166;-78
2021/05/13 08:04:56;;;;;;;9.18;1.92;;;19.60;99.90;;;;;;4972791;28;20748;-78
2021/05/13 08:07:22;;;;;;;4.03;1.42;;;19.60;99.90;;;;;;4975327;28;20197;-78
2021/05/13 08:09:48;;;;;;;7.65;1.50;;;19.50;99.90;;;;;;4992293;28;20687;-78
2021/05/13 08:12:14;;;;;;;2.17;1.38;;;19.70;99.90;;;;;;4992535;28;20169;-79
2021/05/13 08:14:40;;;;;;;2.22;1.00;;;19.60;99.90;;;;;;4992181;28;20174;-79
2021/05/13 08:17:06;;;;;;;3.38;1.20;;;19.80;99.90;;;;;;4974722;28;20245;-79
2021/05/13 08:19:31;;;;;;;2.40;1.17;;;19.70;99.90;;;;;;4991999;28;20307;-80
2021/05/13 08:21:57;;;;;;;13.10;1.77;;;19.50;99.90;;;;;;4990922;28;20615;-78
2021/05/13 08:24:23;;;;;;;3.85;1.20;;;19.30;99.90;;;;;;4992219;28;20300;-79
2021/05/13 08:26:49;;;;;;;8.60;2.10;;;19.00;99.90;;;;;;4992139;28;20195;-78
2021/05/13 08:29:14;;;;;;;7.47;1.35;;;19.30;99.90;;;;;;4992318;28;20225;-78
2021/05/13 08:31:40;;;;;;;5.00;1.33;;;19.40;99.90;;;;;;4995346;28;20525;-77
2021/05/13 08:34:06;;;;;;;6.15;1.30;;;19.30;99.90;;;;;;4995985;28;20260;-80
2021/05/13 08:36:31;;;;;;;3.28;1.30;;;18.90;99.90;;;;;;4995848;28;20204;-79
2021/05/13 08:38:57;;;;;;;1.40;1.10;;;18.70;99.90;;;;;;4995840;28;20172;-78
2021/05/13 08:41:22;;;;;;;4.25;1.60;;;18.40;99.90;;;;;;4978649;28;20703;-80
2021/05/13 08:43:52;;;;;;;5.60;1.42;;;18.60;99.90;;;;;;4995871;28;20551;-80
2021/05/13 08:46:20;;;;;;;3.28;1.73;;;18.70;99.90;;;;;;4995927;28;20259;-81
2021/05/13 08:48:47;;;;;;;2.03;1.10;;;18.70;99.90;;;;;;4997746;28;20189;-81
2021/05/13 08:51:13;;;;;;;4.10;1.30;;;19.20;99.90;;;;;;4996330;28;20200;-81
2021/05/13 08:53:55;;;;;;;2.55;1.10;;;19.10;99.90;;;;;;4996023;28;20162;-81
2021/05/13 08:56:26;;;;;;;2.88;1.00;;;19.30;99.90;;;;;;4996313;28;20169;-80
2021/05/13 08:58:52;;;;;;;2.85;1.10;;;19.30;99.90;;;;;;4996089;28;20726;-79
2021/05/13 09:01:24;;;;;;;3.53;1.13;;;19.50;99.90;;;;;;4995893;28;20288;-79
2021/05/13 09:03:53;;;;;;;1.80;1.20;;;19.50;99.90;;;;;;4995800;28;20165;-80
2021/05/13 09:06:31;;;;;;;3.00;1.52;;;19.50;99.90;;;;;;4978625;28;20272;-80
2021/05/13 09:09:10;;;;;;;3.92;1.25;;;20.00;99.90;;;;;;4995685;28;20168;-81
2021/05/13 09:11:45;;;;;;;3.40;1.33;;;19.80;99.90;;;;;;4996143;28;20180;-80
2021/05/13 09:14:10;;;;;;;6.30;1.35;;;19.60;99.90;;;;;;4996223;28;20219;-80
2021/05/13 09:16:36;;;;;;;5.38;1.15;;;20.00;99.90;;;;;;4995843;28;20645;-81
2021/05/13 09:19:22;;;;;;;2.28;1.20;;;20.70;99.90;;;;;;4995237;28;20181;-79
2021/05/13 09:21:57;;;;;;;2.08;1.25;;;20.20;99.90;;;;;;4995332;28;20647;-81
2021/05/13 09:24:42;;;;;;;3.45;1.38;;;20.20;99.90;;;;;;4995553;28;20160;-79
2021/05/13 09:27:20;;;;;;;6.28;1.40;;;20.70;99.90;;;;;;4995560;28;20228;-80
2021/05/13 09:29:46;;;;;;;4.00;1.58;;;21.10;99.90;;;;;;4995412;28;20528;-80
2021/05/13 09:32:20;;;;;;;3.97;1.80;;;21.20;99.90;;;;;;4994997;28;20165;-80
2021/05/13 09:34:46;;;;;;;2.33;1.48;;;21.30;99.90;;;;;;4995295;28;20165;-81
2021/05/13 09:37:11;;;;;;;3.88;1.60;;;20.60;99.90;;;;;;4994983;28;20256;-80
2021/05/13 09:39:45;;;;;;;1.92;1.00;;;20.50;99.90;;;;;;4994819;28;20210;-80
2021/05/13 09:42:11;;;;;;;4.45;1.30;;;20.20;99.90;;;;;;4994361;28;20240;-80
2021/05/13 09:44:38;;;;;;;5.85;1.52;;;20.60;99.90;;;;;;4977298;28;20200;-83
2021/05/13 09:47:21;;;;;;;3.03;1.30;;;20.80;99.90;;;;;;4994762;28;20696;-83
2021/05/13 09:50:01;;;;;;;8.02;1.40;;;20.60;99.90;;;;;;4977492;28;20212;-82
2021/05/13 09:52:43;;;;;;;4.90;1.90;;;20.60;99.90;;;;;;4994783;28;20169;-82
2021/05/13 09:55:13;;;;;;;5.97;1.40;;;20.80;99.90;;;;;;4977207;28;20219;-82
2021/05/13 09:57:40;;;;;;;3.47;1.73;;;20.80;99.90;;;;;;4994441;28;20657;-82
2021/05/13 10:00:07;;;;;;;5.68;1.70;;;20.90;99.90;;;;;;4993134;28;20212;-82
2021/05/13 10:02:35;;;;;;;7.05;1.38;;;21.10;99.90;;;;;;4977083;28;20643;-82
2021/05/13 10:05:03;;;;;;;4.03;1.58;;;21.10;99.90;;;;;;4994323;28;20573;-80
2021/05/13 10:07:28;;;;;;;3.75;1.65;;;21.30;99.90;;;;;;4976940;28;20228;-82
2021/05/13 10:09:54;;;;;;;3.92;1.52;;;21.60;99.90;;;;;;4992838;28;20264;-81
2021/05/13 10:12:20;;;;;;;2.13;1.33;;;21.20;99.90;;;;;;4994275;28;20176;-81
2021/05/13 10:14:50;;;;;;;1.58;1.08;;;21.50;99.90;;;;;;4993585;28;20203;-81
2021/05/13 10:17:16;;;;;;;4.32;1.58;;;21.00;99.90;;;;;;4994249;28;20231;-81
2021/05/13 10:19:49;;;;;;;7.00;1.75;;;21.00;99.90;;;;;;4992808;28;20662;-82
2021/05/13 10:22:16;;;;;;;2.58;1.35;;;21.20;99.90;;;;;;4994460;28;20169;-81
2021/05/13 10:24:43;;;;;;;2.58;1.35;;;21.60;99.90;;;;;;4994719;28;20177;-82
2021/05/13 10:27:21;;;;;;;10.10;1.80;;;21.40;99.80;;;;;;4997292;28;20189;-80
2021/05/13 10:29:58;;;;;;;2.72;1.58;;;20.90;99.90;;;;;;4985931;28;20547;-79
2021/05/13 10:32:30;;;;;;;2.70;1.52;;;21.00;99.90;;;;;;4977557;28;20176;-82
2021/05/13 10:34:58;;;;;;;2.45;1.35;;;21.00;99.90;;;;;;4973216;28;20185;-87
2021/05/13 10:37:38;;;;;;;3.05;1.40;;;20.70;99.90;;;;;;4972520;28;20277;-84
2021/05/13 10:42:33;;;;;;;2.80;1.60;;;20.70;99.90;;;;;;4974047;28;20260;-81
2021/05/13 10:44:59;;;;;;;6.35;2.00;;;20.90;99.90;;;;;;4974000;28;20394;-82
2021/05/13 10:47:31;;;;;;;5.78;1.95;;;21.20;99.90;;;;;;4974162;28;20711;-80
2021/05/13 10:49:57;;;;;;;6.07;1.65;;;21.30;99.90;;;;;;4973859;28;20215;-80
2021/05/13 10:52:35;;;;;;;6.97;1.92;;;21.60;99.90;;;;;;4972321;28;20180;-80
2021/05/13 10:55:04;;;;;;;4.00;1.92;;;21.90;99.90;;;;;;4973442;28;20170;-79
2021/05/13 10:57:47;;;;;;;6.55;1.83;;;21.90;99.90;;;;;;4973803;28;20201;-80
2021/05/13 11:00:15;;;;;;;4.28;1.75;;;21.90;98.90;;;;;;4956490;28;20685;-81
2021/05/13 11:02:45;;;;;;;3.58;1.70;;;21.50;99.60;;;;;;4972825;28;20535;-80
2021/05/13 11:05:30;;;;;;;5.88;1.83;;;21.30;99.40;;;;;;4973804;28;20174;-80
2021/05/13 11:08:21;;;;;;;4.70;1.48;;;21.40;99.60;;;;;;4973620;28;20226;-81
2021/05/13 11:10:58;;;;;;;4.88;1.50;;;21.60;99.40;;;;;;4966588;28;20562;-81
2021/05/13 11:13:38;;;;;;;4.75;1.60;;;21.70;99.00;;;;;;4973731;28;20170;-79
2021/05/13 11:16:04;;;;;;;2.75;1.20;;;21.60;99.30;;;;;;4973491;28;20630;-80
2021/05/13 11:18:30;;;;;;;5.32;2.08;;;21.60;99.90;;;;;;4955866;28;20205;-81
2021/05/13 11:20:57;;;;;;;4.18;1.98;;;22.00;99.20;;;;;;4972033;28;20692;-79
2021/05/13 11:23:33;;;;;;;4.53;1.48;;;22.20;99.90;;;;;;4973150;28;20536;-79
2021/05/13 11:26:00;;;;;;;6.18;2.25;;;22.30;99.10;;;;;;4956752;28;20176;-79
2021/05/13 11:28:37;;;;;;;2.97;2.05;;;22.10;99.00;;;;;;4973308;28;20218;-80
2021/05/13 11:31:06;;;;;;;2.22;1.52;;;22.10;99.80;;;;;;4973012;28;20173;-79
2021/05/13 11:33:50;;;;;;;4.28;1.70;;;22.10;98.60;;;;;;4973151;28;20320;-83
2021/05/13 11:36:37;;;;;;;3.22;2.15;;;21.80;99.60;;;;;;4972270;28;20178;-80
2021/05/13 11:39:10;;;;;;;2.63;1.60;;;21.70;99.90;;;;;;4972309;28;20180;-79
2021/05/13 11:41:36;;;;;;;4.68;1.52;;;21.90;99.80;;;;;;4971928;28;20217;-79
2021/05/13 11:44:03;;;;;;;6.68;2.00;;;21.90;99.90;;;;;;4972248;28;20204;-79
2021/05/13 11:46:28;;;;;;;6.28;2.33;;;22.00;99.60;;;;;;4973485;28;20192;-80
2021/05/13 11:48:56;;;;;;;4.90;2.72;;;21.60;99.90;;;;;;4973482;28;20185;-80
2021/05/13 11:51:27;;;;;;;8.75;2.15;;;21.40;99.90;;;;;;4973365;28;20174;-81
2021/05/13 11:53:54;;;;;;;6.07;2.50;;;21.30;99.90;;;;;;4973631;28;20197;-81
2021/05/13 11:56:20;;;;;;;9.05;2.38;;;20.70;99.90;;;;;;4973066;28;20185;-81
2021/05/13 11:58:47;;;;;;;4.82;2.55;;;20.60;99.90;;;;;;4973108;28;20190;-81
2021/05/13 12:01:37;;;;;;;5.43;2.50;;;20.30;99.90;;;;;;4973303;28;20213;-81
2021/05/13 12:04:13;;;;;;;9.73;3.17;;;19.50;99.90;;;;;;4973798;28;20530;-81
2021/05/13 12:06:54;;;;;;;3.88;2.22;;;18.60;99.90;;;;;;4977078;28;20180;-80
2021/05/13 12:09:21;;;;;;;3.60;2.30;;;18.30;99.90;;;;;;4975553;28;20170;-80
2021/05/13 12:11:47;;;;;;;5.75;2.00;;;17.60;99.90;;;;;;4977145;28;20250;-78
2021/05/13 12:14:23;;;;;;;2.30;1.80;;;17.20;99.90;;;;;;4976489;28;20174;-78
2021/05/13 12:16:56;;;;;;;8.18;1.52;;;16.90;99.90;;;;;;4976586;28;20169;-79
2021/05/13 12:19:22;;;;;;;2.47;1.67;;;16.70;99.90;;;;;;4975017;28;20214;-80
2021/05/13 12:21:53;;;;;;;2.40;1.95;;;16.10;99.90;;;;;;4976660;28;20178;-79
2021/05/13 12:24:29;;;;;;;3.70;1.80;;;15.80;99.90;;;;;;4975677;28;20170;-79
2021/05/13 12:26:55;;;;;;;3.13;2.17;;;15.50;99.90;;;;;;4976538;28;20196;-79
2021/05/13 12:29:21;;;;;;;3.08;1.63;;;15.30;99.90;;;;;;4976500;28;20170;-79
2021/05/13 12:31:48;;;;;;;1.90;1.60;;;15.00;99.90;;;;;;4959353;28;20176;-80
2021/05/13 12:34:36;;;;;;;5.07;1.60;;;15.00;99.90;;;;;;4976819;28;20174;-80
2021/05/13 12:37:04;;;;;;;2.53;1.10;;;15.10;99.90;;;;;;4976223;28;20189;-80
2021/05/13 12:39:31;;;;;;;6.05;1.50;;;14.90;99.90;;;;;;4976206;28;20213;-80
2021/05/13 12:41:57;;;;;;;1.77;1.55;;;15.10;99.90;;;;;;4974918;28;20166;-80
2021/05/13 12:44:27;;;;;;;1.45;1.10;;;14.90;99.90;;;;;;4974691;28;20177;-81
2021/05/13 12:46:54;;;;;;;1.25;1.15;;;14.70;99.90;;;;;;4976127;28;20225;-79
2021/05/13 12:49:25;;;;;;;3.55;1.60;;;14.40;99.90;;;;;;4976073;28;20688;-81
2021/05/13 12:51:57;;;;;;;1.42;1.27;;;14.40;99.90;;;;;;4976089;28;20178;-80
2021/05/13 12:54:23;;;;;;;2.25;1.52;;;14.30;99.90;;;;;;4974829;28;20169;-79
2021/05/13 12:56:49;;;;;;;2.30;1.52;;;14.30;99.90;;;;;;4974735;28;20509;-80
2021/05/13 12:59:15;;;;;;;1.40;1.30;;;14.40;99.90;;;;;;4958516;28;20208;-78
2021/05/13 13:01:43;;;;;;;1.73;1.48;;;14.60;99.90;;;;;;4975447;28;20704;-80
2021/05/13 13:04:10;;;;;;;1.23;1.23;;;14.60;99.90;;;;;;4958494;28;20534;-81